Tours, France

6:04 PM CET on December 04, 2016 (GMT +0100)
Rue de la Perrée | | Change Station

Elev 0 ft 47.46 °N, 0.70 °E | Updated 5 minutes ago

Clear
Clear
38.1 °F
Feels Like 38 °F
N
1.9
Wind Variable Wind from NE
Gusts 5.0 mph

Today
High -- | Low -- °F
--% Chance of Precip.
Yesterday
High -- | Low -- °F
Precip. -- in
Pressure 30.09 in
Visibility -9999.0 miles
Clouds
Windchill 38 °F
Dew Point 36 °F
Humidity 90%
Rainfall 0.00 in
Snow Depth Not available.
8:27 AM 5:07 PM
Waxing Crescent, 24% visible
METAR LFRM 041700Z AUTO 07005KT 040V100 CAVOK 03/01 Q1019 NOSIG
Pressure 30.09 in
Visibility -9999.0 miles
Clouds
Windchill 38 °F
Dew Point 36 °F
Humidity 90%
Rainfall 0.00 in
Snow Depth Not available.
8:27 AM 5:07 PM
Waxing Crescent, 24% visible
METAR LFRM 041700Z AUTO 07005KT 040V100 CAVOK 03/01 Q1019 NOSIG

10-Day Weather Forecast

×

Almanac

Astronomy

Dec. 04, 2016 Rise Set
Actual Time
Civil Twilight
Nautical Twilight
Astronomical Twilight
Moon
Length of Visible Light
Length of Day
Tomorrow will be .
, % of the Moon is Illuminated

Today's Extremes

Country Highs Country Lows

Community

WunderPhotos

Upload Photos

1,955,630 photos uploaded!

WunderBlog® & News

Nearby

Air Quality

  Air Quality AQ Index Pollutant
Not available.

Snow Depth

Station Depth Elevation

Earthquake Activity

City Distance Mag. Time & Date
Minimum magnitude displayed is 2.5.

Coastal Water Temperatures

Place Temperature

Stations

Nearby Weather Stations

Station Location Temp. Windchill Dew Point Humidity Wind Precip. Elev Updated Type